sensor_id;sensor_type;location;lat;lon;timestamp;temperature;humidity
40538;DHT22;27925;41.874;12.526;2023-02-27T00:02:15;11.10;87.40
40538;DHT22;27925;41.874;12.526;2023-02-27T00:04:41;11.00;88.00
40538;DHT22;27925;41.874;12.526;2023-02-27T00:07:07;11.00;88.30
40538;DHT22;27925;41.874;12.526;2023-02-27T00:09:33;11.00;88.30
40538;DHT22;27925;41.874;12.526;2023-02-27T00:11:59;11.00;88.40
40538;DHT22;27925;41.874;12.526;2023-02-27T00:14:25;11.00;88.70
40538;DHT22;27925;41.874;12.526;2023-02-27T00:16:50;10.90;88.40
40538;DHT22;27925;41.874;12.526;2023-02-27T00:19:16;11.00;88.50
40538;DHT22;27925;41.874;12.526;2023-02-27T00:21:42;11.00;88.90
40538;DHT22;27925;41.874;12.526;2023-02-27T00:24:09;11.00;88.90
40538;DHT22;27925;41.874;12.526;2023-02-27T00:26:36;11.00;88.80
40538;DHT22;27925;41.874;12.526;2023-02-27T00:29:03;11.10;89.00
40538;DHT22;27925;41.874;12.526;2023-02-27T00:31:29;11.10;89.00
40538;DHT22;27925;41.874;12.526;2023-02-27T00:33:55;11.10;89.00
40538;DHT22;27925;41.874;12.526;2023-02-27T00:36:20;11.10;89.10
40538;DHT22;27925;41.874;12.526;2023-02-27T00:38:46;11.20;89.00
40538;DHT22;27925;41.874;12.526;2023-02-27T00:41:12;11.20;88.70
40538;DHT22;27925;41.874;12.526;2023-02-27T00:43:38;11.20;88.70
40538;DHT22;27925;41.874;12.526;2023-02-27T00:46:04;11.20;88.70
40538;DHT22;27925;41.874;12.526;2023-02-27T00:48:29;11.20;88.70
40538;DHT22;27925;41.874;12.526;2023-02-27T00:50:55;11.10;88.40
40538;DHT22;27925;41.874;12.526;2023-02-27T00:53:21;11.00;88.00
40538;DHT22;27925;41.874;12.526;2023-02-27T00:55:47;11.00;88.40
40538;DHT22;27925;41.874;12.526;2023-02-27T00:58:13;11.00;88.40
40538;DHT22;27925;41.874;12.526;2023-02-27T01:00:38;11.00;88.30
40538;DHT22;27925;41.874;12.526;2023-02-27T01:03:04;11.00;88.20
40538;DHT22;27925;41.874;12.526;2023-02-27T01:05:30;10.90;88.10
40538;DHT22;27925;41.874;12.526;2023-02-27T01:07:55;11.00;87.90
40538;DHT22;27925;41.874;12.526;2023-02-27T01:10:21;11.10;88.00
40538;DHT22;27925;41.874;12.526;2023-02-27T01:12:47;11.20;87.90
40538;DHT22;27925;41.874;12.526;2023-02-27T01:15:12;11.20;87.60
40538;DHT22;27925;41.874;12.526;2023-02-27T01:17:38;11.30;87.90
40538;DHT22;27925;41.874;12.526;2023-02-27T01:20:05;11.30;87.50
40538;DHT22;27925;41.874;12.526;2023-02-27T01:22:31;11.30;87.60
40538;DHT22;27925;41.874;12.526;2023-02-27T01:24:58;11.20;88.00
40538;DHT22;27925;41.874;12.526;2023-02-27T01:27:23;11.10;87.90
40538;DHT22;27925;41.874;12.526;2023-02-27T01:29:49;11.10;88.60
40538;DHT22;27925;41.874;12.526;2023-02-27T01:32:15;11.10;88.30
40538;DHT22;27925;41.874;12.526;2023-02-27T01:34:40;11.10;88.80
40538;DHT22;27925;41.874;12.526;2023-02-27T01:37:06;11.00;88.80
40538;DHT22;27925;41.874;12.526;2023-02-27T01:39:32;11.00;88.40
40538;DHT22;27925;41.874;12.526;2023-02-27T01:41:59;10.90;88.50
40538;DHT22;27925;41.874;12.526;2023-02-27T01:44:27;10.80;88.90
40538;DHT22;27925;41.874;12.526;2023-02-27T01:46:53;10.70;88.70
40538;DHT22;27925;41.874;12.526;2023-02-27T01:49:32;10.70;88.70
40538;DHT22;27925;41.874;12.526;2023-02-27T01:52:04;10.60;88.80
40538;DHT22;27925;41.874;12.526;2023-02-27T01:54:34;10.50;89.00
40538;DHT22;27925;41.874;12.526;2023-02-27T01:57:01;10.40;89.20
40538;DHT22;27925;41.874;12.526;2023-02-27T01:59:34;10.30;89.20
40538;DHT22;27925;41.874;12.526;2023-02-27T02:02:03;10.30;88.80
40538;DHT22;27925;41.874;12.526;2023-02-27T02:04:33;10.30;89.60
40538;DHT22;27925;41.874;12.526;2023-02-27T02:07:02;10.30;89.30
40538;DHT22;27925;41.874;12.526;2023-02-27T02:09:29;10.30;89.70
40538;DHT22;27925;41.874;12.526;2023-02-27T02:11:58;10.20;89.90
40538;DHT22;27925;41.874;12.526;2023-02-27T02:14:24;10.20;90.10
40538;DHT22;27925;41.874;12.526;2023-02-27T02:40:04;10.10;89.90
40538;DHT22;27925;41.874;12.526;2023-02-27T02:42:46;10.00;90.00
40538;DHT22;27925;41.874;12.526;2023-02-27T02:45:35;10.00;89.90
40538;DHT22;27925;41.874;12.526;2023-02-27T02:48:26;10.00;89.60
40538;DHT22;27925;41.874;12.526;2023-02-27T02:57:18;10.10;89.20
40538;DHT22;27925;41.874;12.526;2023-02-27T03:02:35;10.30;89.60
40538;DHT22;27925;41.874;12.526;2023-02-27T03:05:07;10.30;89.70
40538;DHT22;27925;41.874;12.526;2023-02-27T03:08:03;10.30;89.40
40538;DHT22;27925;41.874;12.526;2023-02-27T03:10:55;10.30;89.40
40538;DHT22;27925;41.874;12.526;2023-02-27T03:13:38;10.40;89.70
40538;DHT22;27925;41.874;12.526;2023-02-27T03:16:19;10.50;89.20
40538;DHT22;27925;41.874;12.526;2023-02-27T03:18:53;10.60;88.80
40538;DHT22;27925;41.874;12.526;2023-02-27T03:21:48;10.60;89.00
40538;DHT22;27925;41.874;12.526;2023-02-27T03:24:38;10.60;88.40
40538;DHT22;27925;41.874;12.526;2023-02-27T03:27:07;10.70;88.40
40538;DHT22;27925;41.874;12.526;2023-02-27T03:30:00;10.70;88.70
40538;DHT22;27925;41.874;12.526;2023-02-27T03:32:35;10.70;88.10
40538;DHT22;27925;41.874;12.526;2023-02-27T03:35:04;10.70;88.70
40538;DHT22;27925;41.874;12.526;2023-02-27T03:38:06;10.70;88.50
40538;DHT22;27925;41.874;12.526;2023-02-27T03:43:29;10.70;88.70
40538;DHT22;27925;41.874;12.526;2023-02-27T03:46:04;10.60;88.10
40538;DHT22;27925;41.874;12.526;2023-02-27T03:48:31;10.50;88.40
40538;DHT22;27925;41.874;12.526;2023-02-27T03:50:57;10.50;89.00
40538;DHT22;27925;41.874;12.526;2023-02-27T03:56:21;10.30;89.10
40538;DHT22;27925;41.874;12.526;2023-02-27T03:58:48;10.30;89.40
40538;DHT22;27925;41.874;12.526;2023-02-27T04:01:15;10.30;89.40
40538;DHT22;27925;41.874;12.526;2023-02-27T04:03:59;10.30;89.40
40538;DHT22;27925;41.874;12.526;2023-02-27T04:06:25;10.30;89.50
40538;DHT22;27925;41.874;12.526;2023-02-27T04:09:14;10.40;89.50
40538;DHT22;27925;41.874;12.526;2023-02-27T04:17:25;10.50;89.10
40538;DHT22;27925;41.874;12.526;2023-02-27T04:20:11;10.50;89.40
40538;DHT22;27925;41.874;12.526;2023-02-27T04:22:47;10.50;89.70
40538;DHT22;27925;41.874;12.526;2023-02-27T04:25:40;10.40;89.60
40538;DHT22;27925;41.874;12.526;2023-02-27T04:28:10;10.40;89.80
40538;DHT22;27925;41.874;12.526;2023-02-27T04:30:44;10.40;90.00
40538;DHT22;27925;41.874;12.526;2023-02-27T04:35:49;10.40;90.00
40538;DHT22;27925;41.874;12.526;2023-02-27T04:38:27;10.40;90.10
40538;DHT22;27925;41.874;12.526;2023-02-27T04:41:18;10.40;90.00
40538;DHT22;27925;41.874;12.526;2023-02-27T04:43:47;10.40;90.20
40538;DHT22;27925;41.874;12.526;2023-02-27T04:46:15;10.40;90.40
40538;DHT22;27925;41.874;12.526;2023-02-27T04:51:26;10.40;90.40
40538;DHT22;27925;41.874;12.526;2023-02-27T04:54:03;10.40;90.40
40538;DHT22;27925;41.874;12.526;2023-02-27T04:56:35;10.40;90.40
40538;DHT22;27925;41.874;12.526;2023-02-27T04:59:15;10.40;90.80
40538;DHT22;27925;41.874;12.526;2023-02-27T05:01:46;10.40;90.80
40538;DHT22;27925;41.874;12.526;2023-02-27T05:04:18;10.30;90.60
40538;DHT22;27925;41.874;12.526;2023-02-27T05:06:46;10.30;90.90
40538;DHT22;27925;41.874;12.526;2023-02-27T05:09:30;10.20;90.90
40538;DHT22;27925;41.874;12.526;2023-02-27T05:12:16;10.30;90.60
40538;DHT22;27925;41.874;12.526;2023-02-27T05:17:35;10.40;90.90
40538;DHT22;27925;41.874;12.526;2023-02-27T05:20:02;10.40;90.80
40538;DHT22;27925;41.874;12.526;2023-02-27T05:28:46;10.20;90.50
40538;DHT22;27925;41.874;12.526;2023-02-27T05:31:23;10.30;90.80
40538;DHT22;27925;41.874;12.526;2023-02-27T05:34:09;10.30;90.60
40538;DHT22;27925;41.874;12.526;2023-02-27T05:36:40;10.30;90.40
40538;DHT22;27925;41.874;12.526;2023-02-27T05:39:11;10.30;90.50
40538;DHT22;27925;41.874;12.526;2023-02-27T05:41:46;10.30;90.60
40538;DHT22;27925;41.874;12.526;2023-02-27T05:44:22;10.30;90.60
40538;DHT22;27925;41.874;12.526;2023-02-27T05:46:59;10.40;90.70
40538;DHT22;27925;41.874;12.526;2023-02-27T05:49:36;10.30;90.70
40538;DHT22;27925;41.874;12.526;2023-02-27T05:52:08;10.30;90.70
40538;DHT22;27925;41.874;12.526;2023-02-27T05:54:56;10.30;90.70
40538;DHT22;27925;41.874;12.526;2023-02-27T05:57:32;10.30;90.40
40538;DHT22;27925;41.874;12.526;2023-02-27T06:02:34;10.20;90.40
40538;DHT22;27925;41.874;12.526;2023-02-27T06:05:00;10.10;90.60
40538;DHT22;27925;41.874;12.526;2023-02-27T06:07:30;10.10;90.70
40538;DHT22;27925;41.874;12.526;2023-02-27T06:09:57;10.10;90.80
40538;DHT22;27925;41.874;12.526;2023-02-27T06:12:23;10.10;90.80
40538;DHT22;27925;41.874;12.526;2023-02-27T06:14:48;10.10;90.60
40538;DHT22;27925;41.874;12.526;2023-02-27T06:17:16;10.00;90.70
40538;DHT22;27925;41.874;12.526;2023-02-27T06:19:42;10.00;90.90
40538;DHT22;27925;41.874;12.526;2023-02-27T06:22:09;10.00;90.90
40538;DHT22;27925;41.874;12.526;2023-02-27T06:24:35;10.00;90.90
40538;DHT22;27925;41.874;12.526;2023-02-27T06:27:01;10.00;90.70
40538;DHT22;27925;41.874;12.526;2023-02-27T06:29:26;9.90;91.10
40538;DHT22;27925;41.874;12.526;2023-02-27T06:31:52;9.90;91.30
40538;DHT22;27925;41.874;12.526;2023-02-27T06:34:18;9.90;91.20
40538;DHT22;27925;41.874;12.526;2023-02-27T06:36:44;9.90;91.30
40538;DHT22;27925;41.874;12.526;2023-02-27T06:39:09;10.00;91.10
40538;DHT22;27925;41.874;12.526;2023-02-27T06:41:35;10.10;90.90
40538;DHT22;27925;41.874;12.526;2023-02-27T06:44:01;10.10;90.60
40538;DHT22;27925;41.874;12.526;2023-02-27T06:46:27;10.10;90.70
40538;DHT22;27925;41.874;12.526;2023-02-27T06:48:52;10.10;90.40
40538;DHT22;27925;41.874;12.526;2023-02-27T06:51:18;10.30;90.40
40538;DHT22;27925;41.874;12.526;2023-02-27T06:53:44;10.30;90.30
40538;DHT22;27925;41.874;12.526;2023-02-27T06:56:09;10.50;90.30
40538;DHT22;27925;41.874;12.526;2023-02-27T06:58:35;10.60;90.20
40538;DHT22;27925;41.874;12.526;2023-02-27T07:01:01;10.70;90.00
40538;DHT22;27925;41.874;12.526;2023-02-27T07:03:28;10.70;89.90
40538;DHT22;27925;41.874;12.526;2023-02-27T07:05:56;10.70;90.00
40538;DHT22;27925;41.874;12.526;2023-02-27T07:08:21;10.70;89.70
40538;DHT22;27925;41.874;12.526;2023-02-27T07:10:48;10.70;89.40
40538;DHT22;27925;41.874;12.526;2023-02-27T07:13:14;10.60;89.50
40538;DHT22;27925;41.874;12.526;2023-02-27T07:15:40;10.60;89.80
40538;DHT22;27925;41.874;12.526;2023-02-27T07:18:05;10.70;89.40
40538;DHT22;27925;41.874;12.526;2023-02-27T07:20:31;10.70;89.10
40538;DHT22;27925;41.874;12.526;2023-02-27T07:22:57;10.70;89.00
40538;DHT22;27925;41.874;12.526;2023-02-27T07:25:22;10.70;88.70
40538;DHT22;27925;41.874;12.526;2023-02-27T07:27:48;10.70;88.60
40538;DHT22;27925;41.874;12.526;2023-02-27T07:30:16;10.80;88.30
40538;DHT22;27925;41.874;12.526;2023-02-27T07:32:42;10.80;88.50
40538;DHT22;27925;41.874;12.526;2023-02-27T07:35:08;10.80;88.10
40538;DHT22;27925;41.874;12.526;2023-02-27T07:37:34;10.80;87.70
40538;DHT22;27925;41.874;12.526;2023-02-27T07:40:00;10.90;87.50
40538;DHT22;27925;41.874;12.526;2023-02-27T07:42:25;11.00;87.40
40538;DHT22;27925;41.874;12.526;2023-02-27T07:44:51;11.10;87.20
40538;DHT22;27925;41.874;12.526;2023-02-27T07:47:17;11.20;87.10
40538;DHT22;27925;41.874;12.526;2023-02-27T07:49:42;11.40;87.20
40538;DHT22;27925;41.874;12.526;2023-02-27T07:52:08;11.50;86.10
40538;DHT22;27925;41.874;12.526;2023-02-27T07:54:35;11.70;86.10
40538;DHT22;27925;41.874;12.526;2023-02-27T07:57:05;11.90;85.30
40538;DHT22;27925;41.874;12.526;2023-02-27T07:59:31;11.90;84.20
40538;DHT22;27925;41.874;12.526;2023-02-27T08:01:57;12.00;84.70
40538;DHT22;27925;41.874;12.526;2023-02-27T08:04:23;12.10;84.30
40538;DHT22;27925;41.874;12.526;2023-02-27T08:06:48;12.10;84.10
40538;DHT22;27925;41.874;12.526;2023-02-27T08:09:14;12.30;84.10
40538;DHT22;27925;41.874;12.526;2023-02-27T08:11:40;12.40;83.70
40538;DHT22;27925;41.874;12.526;2023-02-27T08:14:05;12.50;83.80
40538;DHT22;27925;41.874;12.526;2023-02-27T08:16:31;12.50;83.70
40538;DHT22;27925;41.874;12.526;2023-02-27T08:18:58;12.70;83.60
40538;DHT22;27925;41.874;12.526;2023-02-27T08:21:24;12.60;83.40
40538;DHT22;27925;41.874;12.526;2023-02-27T08:23:49;12.60;83.20
40538;DHT22;27925;41.874;12.526;2023-02-27T08:26:15;12.60;83.30
40538;DHT22;27925;41.874;12.526;2023-02-27T08:28:41;12.60;83.20
40538;DHT22;27925;41.874;12.526;2023-02-27T08:31:06;12.50;83.00
40538;DHT22;27925;41.874;12.526;2023-02-27T08:33:33;12.60;83.20
40538;DHT22;27925;41.874;12.526;2023-02-27T08:35:58;12.60;82.90
40538;DHT22;27925;41.874;12.526;2023-02-27T08:38:24;12.50;82.50
40538;DHT22;27925;41.874;12.526;2023-02-27T08:40:50;12.40;81.90
40538;DHT22;27925;41.874;12.526;2023-02-27T08:43:20;12.40;82.30
40538;DHT22;27925;41.874;12.526;2023-02-27T08:45:47;12.30;82.30
40538;DHT22;27925;41.874;12.526;2023-02-27T08:48:13;12.40;82.40
40538;DHT22;27925;41.874;12.526;2023-02-27T08:50:40;12.30;81.80
40538;DHT22;27925;41.874;12.526;2023-02-27T08:53:06;12.40;82.10
40538;DHT22;27925;41.874;12.526;2023-02-27T08:55:32;12.50;82.30
40538;DHT22;27925;41.874;12.526;2023-02-27T08:57:58;12.60;82.00
40538;DHT22;27925;41.874;12.526;2023-02-27T09:00:24;12.60;81.40
40538;DHT22;27925;41.874;12.526;2023-02-27T09:02:51;12.60;80.60
40538;DHT22;27925;41.874;12.526;2023-02-27T09:05:17;12.50;79.40
40538;DHT22;27925;41.874;12.526;2023-02-27T09:07:43;12.60;79.90
40538;DHT22;27925;41.874;12.526;2023-02-27T09:10:09;12.60;79.30
40538;DHT22;27925;41.874;12.526;2023-02-27T09:12:35;12.60;79.50
40538;DHT22;27925;41.874;12.526;2023-02-27T09:15:02;12.70;80.20
40538;DHT22;27925;41.874;12.526;2023-02-27T09:17:27;12.80;79.30
40538;DHT22;27925;41.874;12.526;2023-02-27T09:19:53;12.80;78.70
40538;DHT22;27925;41.874;12.526;2023-02-27T09:22:19;12.80;78.50
40538;DHT22;27925;41.874;12.526;2023-02-27T09:24:44;12.90;78.60
40538;DHT22;27925;41.874;12.526;2023-02-27T09:27:10;12.90;78.60
40538;DHT22;27925;41.874;12.526;2023-02-27T09:29:36;13.00;78.20
40538;DHT22;27925;41.874;12.526;2023-02-27T09:32:01;13.00;78.20
40538;DHT22;27925;41.874;12.526;2023-02-27T09:34:27;13.20;78.00
40538;DHT22;27925;41.874;12.526;2023-02-27T09:36:57;13.30;77.80
40538;DHT22;27925;41.874;12.526;2023-02-27T09:39:22;13.50;77.60
40538;DHT22;27925;41.874;12.526;2023-02-27T09:41:58;13.70;77.00
40538;DHT22;27925;41.874;12.526;2023-02-27T09:46:56;14.10;76.10
40538;DHT22;27925;41.874;12.526;2023-02-27T09:49:25;14.30;75.70
40538;DHT22;27925;41.874;12.526;2023-02-27T09:51:52;14.40;75.00
40538;DHT22;27925;41.874;12.526;2023-02-27T09:54:18;14.40;74.70
40538;DHT22;27925;41.874;12.526;2023-02-27T09:56:57;14.40;74.70
40538;DHT22;27925;41.874;12.526;2023-02-27T10:12:40;14.40;73.90
40538;DHT22;27925;41.874;12.526;2023-02-27T10:15:26;14.40;73.70
40538;DHT22;27925;41.874;12.526;2023-02-27T10:18:24;14.50;73.40
40538;DHT22;27925;41.874;12.526;2023-02-27T10:21:06;14.70;73.60
40538;DHT22;27925;41.874;12.526;2023-02-27T10:23:42;14.80;73.80
40538;DHT22;27925;41.874;12.526;2023-02-27T10:26:22;14.80;74.00
40538;DHT22;27925;41.874;12.526;2023-02-27T10:28:49;14.70;73.30
40538;DHT22;27925;41.874;12.526;2023-02-27T10:31:23;14.70;73.60
40538;DHT22;27925;41.874;12.526;2023-02-27T10:33:50;14.60;73.20
40538;DHT22;27925;41.874;12.526;2023-02-27T10:36:17;14.70;72.80
40538;DHT22;27925;41.874;12.526;2023-02-27T10:38:48;14.70;72.00
40538;DHT22;27925;41.874;12.526;2023-02-27T10:41:17;14.60;72.20
40538;DHT22;27925;41.874;12.526;2023-02-27T10:43:44;14.60;72.20
40538;DHT22;27925;41.874;12.526;2023-02-27T10:46:22;14.60;71.80
40538;DHT22;27925;41.874;12.526;2023-02-27T10:48:49;14.60;72.20
40538;DHT22;27925;41.874;12.526;2023-02-27T10:51:25;14.80;71.90
40538;DHT22;27925;41.874;12.526;2023-02-27T10:56:40;15.20;70.00
40538;DHT22;27925;41.874;12.526;2023-02-27T10:59:15;15.20;69.20
40538;DHT22;27925;41.874;12.526;2023-02-27T11:01:44;15.20;69.30
40538;DHT22;27925;41.874;12.526;2023-02-27T11:04:11;15.30;68.60
40538;DHT22;27925;41.874;12.526;2023-02-27T11:06:39;15.60;68.50
40538;DHT22;27925;41.874;12.526;2023-02-27T11:11:52;16.20;67.20
40538;DHT22;27925;41.874;12.526;2023-02-27T11:14:31;16.40;65.80
40538;DHT22;27925;41.874;12.526;2023-02-27T11:16:59;16.50;65.50
40538;DHT22;27925;41.874;12.526;2023-02-27T11:22:21;16.70;64.50
40538;DHT22;27925;41.874;12.526;2023-02-27T11:24:49;16.80;63.60
40538;DHT22;27925;41.874;12.526;2023-02-27T11:27:35;16.90;63.00
40538;DHT22;27925;41.874;12.526;2023-02-27T11:30:04;17.00;63.20
40538;DHT22;27925;41.874;12.526;2023-02-27T11:32:44;17.00;63.20
40538;DHT22;27925;41.874;12.526;2023-02-27T11:35:33;17.00;62.60
40538;DHT22;27925;41.874;12.526;2023-02-27T11:38:03;17.10;62.80
40538;DHT22;27925;41.874;12.526;2023-02-27T11:40:33;17.20;62.30
40538;DHT22;27925;41.874;12.526;2023-02-27T11:43:06;17.40;61.80
40538;DHT22;27925;41.874;12.526;2023-02-27T11:45:40;17.70;61.10
40538;DHT22;27925;41.874;12.526;2023-02-27T11:48:11;17.90;60.20
40538;DHT22;27925;41.874;12.526;2023-02-27T11:53:21;18.00;59.30
40538;DHT22;27925;41.874;12.526;2023-02-27T11:55:52;18.10;58.90
40538;DHT22;27925;41.874;12.526;2023-02-27T11:58:21;18.00;57.70
40538;DHT22;27925;41.874;12.526;2023-02-27T12:00:53;17.90;57.90
40538;DHT22;27925;41.874;12.526;2023-02-27T12:03:21;17.80;58.10
40538;DHT22;27925;41.874;12.526;2023-02-27T12:05:55;17.70;59.10
40538;DHT22;27925;41.874;12.526;2023-02-27T12:11:09;17.60;59.10
40538;DHT22;27925;41.874;12.526;2023-02-27T12:13:39;17.70;58.70
40538;DHT22;27925;41.874;12.526;2023-02-27T12:16:17;17.90;58.00
40538;DHT22;27925;41.874;12.526;2023-02-27T12:18:57;17.90;58.60
40538;DHT22;27925;41.874;12.526;2023-02-27T12:21:27;17.80;58.40
40538;DHT22;27925;41.874;12.526;2023-02-27T12:26:32;17.60;59.80
40538;DHT22;27925;41.874;12.526;2023-02-27T12:34:21;17.40;60.00
40538;DHT22;27925;41.874;12.526;2023-02-27T12:36:52;17.60;59.80
40538;DHT22;27925;41.874;12.526;2023-02-27T12:39:22;17.70;58.90
40538;DHT22;27925;41.874;12.526;2023-02-27T12:50:20;18.00;58.50
40538;DHT22;27925;41.874;12.526;2023-02-27T12:53:33;17.90;59.20
40538;DHT22;27925;41.874;12.526;2023-02-27T12:56:12;17.70;59.40
40538;DHT22;27925;41.874;12.526;2023-02-27T12:58:48;17.60;60.20
40538;DHT22;27925;41.874;12.526;2023-02-27T13:04:02;17.40;60.90
40538;DHT22;27925;41.874;12.526;2023-02-27T13:19:51;17.40;62.60
40538;DHT22;27925;41.874;12.526;2023-02-27T13:22:40;17.40;62.30
40538;DHT22;27925;41.874;12.526;2023-02-27T13:25:14;17.30;62.00
40538;DHT22;27925;41.874;12.526;2023-02-27T13:27:47;17.20;61.70
40538;DHT22;27925;41.874;12.526;2023-02-27T13:30:31;17.10;61.60
40538;DHT22;27925;41.874;12.526;2023-02-27T13:33:14;16.90;61.50
40538;DHT22;27925;41.874;12.526;2023-02-27T13:38:51;16.70;62.10
40538;DHT22;27925;41.874;12.526;2023-02-27T13:43:55;16.20;61.90
40538;DHT22;27925;41.874;12.526;2023-02-27T13:46:32;16.00;61.70
40538;DHT22;27925;41.874;12.526;2023-02-27T13:57:18;15.80;63.00
40538;DHT22;27925;41.874;12.526;2023-02-27T13:59:51;15.80;64.20
40538;DHT22;27925;41.874;12.526;2023-02-27T14:04:56;15.80;65.30
40538;DHT22;27925;41.874;12.526;2023-02-27T14:07:25;15.90;64.60
40538;DHT22;27925;41.874;12.526;2023-02-27T14:10:03;16.00;64.50
40538;DHT22;27925;41.874;12.526;2023-02-27T14:12:35;16.00;64.50
40538;DHT22;27925;41.874;12.526;2023-02-27T14:17:52;15.90;64.60
40538;DHT22;27925;41.874;12.526;2023-02-27T14:25:44;16.20;64.20
40538;DHT22;27925;41.874;12.526;2023-02-27T14:31:38;16.50;63.50
40538;DHT22;27925;41.874;12.526;2023-02-27T14:33:47;16.50;63.30
40538;DHT22;27925;41.874;12.526;2023-02-27T14:36:19;16.50;63.30
40538;DHT22;27925;41.874;12.526;2023-02-27T14:38:45;16.50;63.00
40538;DHT22;27925;41.874;12.526;2023-02-27T14:41:25;16.50;63.00
40538;DHT22;27925;41.874;12.526;2023-02-27T14:43:56;16.60;63.20
40538;DHT22;27925;41.874;12.526;2023-02-27T14:48:53;17.10;62.10
40538;DHT22;27925;41.874;12.526;2023-02-27T14:51:20;17.40;61.80
40538;DHT22;27925;41.874;12.526;2023-02-27T14:54:02;17.60;61.50
40538;DHT22;27925;41.874;12.526;2023-02-27T14:56:29;17.90;60.60
40538;DHT22;27925;41.874;12.526;2023-02-27T14:58:55;17.90;60.30
40538;DHT22;27925;41.874;12.526;2023-02-27T15:01:22;18.00;60.50
40538;DHT22;27925;41.874;12.526;2023-02-27T15:03:52;18.20;60.30
40538;DHT22;27925;41.874;12.526;2023-02-27T15:06:20;18.10;59.70
40538;DHT22;27925;41.874;12.526;2023-02-27T15:08:52;18.20;60.00
40538;DHT22;27925;41.874;12.526;2023-02-27T15:11:23;18.20;59.60
40538;DHT22;27925;41.874;12.526;2023-02-27T15:14:07;18.10;59.50
40538;DHT22;27925;41.874;12.526;2023-02-27T15:16:34;18.00;58.70
40538;DHT22;27925;41.874;12.526;2023-02-27T15:19:23;17.80;56.40
40538;DHT22;27925;41.874;12.526;2023-02-27T15:21:58;17.50;59.70
40538;DHT22;27925;41.874;12.526;2023-02-27T15:24:34;17.40;59.90
40538;DHT22;27925;41.874;12.526;2023-02-27T15:27:10;17.30;60.70
40538;DHT22;27925;41.874;12.526;2023-02-27T15:29:40;17.30;60.50
40538;DHT22;27925;41.874;12.526;2023-02-27T15:32:18;17.20;60.60
40538;DHT22;27925;41.874;12.526;2023-02-27T15:34:46;17.20;59.90
40538;DHT22;27925;41.874;12.526;2023-02-27T15:37:23;17.20;60.00
40538;DHT22;27925;41.874;12.526;2023-02-27T15:39:51;17.30;59.90
40538;DHT22;27925;41.874;12.526;2023-02-27T15:42:20;17.20;59.30
40538;DHT22;27925;41.874;12.526;2023-02-27T15:44:48;17.10;59.20
40538;DHT22;27925;41.874;12.526;2023-02-27T15:47:34;16.70;60.80
40538;DHT22;27925;41.874;12.526;2023-02-27T15:50:10;16.40;61.80
40538;DHT22;27925;41.874;12.526;2023-02-27T15:52:51;16.30;62.40
40538;DHT22;27925;41.874;12.526;2023-02-27T15:55:26;15.90;62.20
40538;DHT22;27925;41.874;12.526;2023-02-27T15:57:53;15.60;62.70
40538;DHT22;27925;41.874;12.526;2023-02-27T16:00:19;15.50;63.20
40538;DHT22;27925;41.874;12.526;2023-02-27T16:02:49;15.40;63.20
40538;DHT22;27925;41.874;12.526;2023-02-27T16:07:49;15.10;64.40
40538;DHT22;27925;41.874;12.526;2023-02-27T16:10:20;15.00;64.20
40538;DHT22;27925;41.874;12.526;2023-02-27T16:12:47;14.90;65.00
40538;DHT22;27925;41.874;12.526;2023-02-27T16:15:24;14.90;66.50
40538;DHT22;27925;41.874;12.526;2023-02-27T16:18:04;14.80;68.10
40538;DHT22;27925;41.874;12.526;2023-02-27T16:20:45;14.70;68.90
40538;DHT22;27925;41.874;12.526;2023-02-27T16:23:27;14.60;69.90
40538;DHT22;27925;41.874;12.526;2023-02-27T16:26:22;14.50;70.50
40538;DHT22;27925;41.874;12.526;2023-02-27T16:28:52;14.50;70.90
40538;DHT22;27925;41.874;12.526;2023-02-27T16:31:24;14.30;72.10
40538;DHT22;27925;41.874;12.526;2023-02-27T16:33:51;14.30;72.90
40538;DHT22;27925;41.874;12.526;2023-02-27T16:36:20;14.20;73.30
40538;DHT22;27925;41.874;12.526;2023-02-27T16:38:47;14.20;73.40
40538;DHT22;27925;41.874;12.526;2023-02-27T16:41:14;14.20;73.90
40538;DHT22;27925;41.874;12.526;2023-02-27T16:43:41;14.10;74.30
40538;DHT22;27925;41.874;12.526;2023-02-27T16:46:08;14.00;74.60
40538;DHT22;27925;41.874;12.526;2023-02-27T16:48:34;14.00;74.60
40538;DHT22;27925;41.874;12.526;2023-02-27T16:51:00;13.90;75.20
40538;DHT22;27925;41.874;12.526;2023-02-27T16:53:26;13.80;75.20
40538;DHT22;27925;41.874;12.526;2023-02-27T16:55:52;13.80;75.30
40538;DHT22;27925;41.874;12.526;2023-02-27T16:58:19;13.70;75.80
40538;DHT22;27925;41.874;12.526;2023-02-27T17:00:46;13.70;76.00
40538;DHT22;27925;41.874;12.526;2023-02-27T17:03:12;13.60;76.30
40538;DHT22;27925;41.874;12.526;2023-02-27T17:05:39;13.50;76.40
40538;DHT22;27925;41.874;12.526;2023-02-27T17:08:05;13.50;76.60
40538;DHT22;27925;41.874;12.526;2023-02-27T17:10:31;13.50;76.90
40538;DHT22;27925;41.874;12.526;2023-02-27T17:12:57;13.50;76.90
40538;DHT22;27925;41.874;12.526;2023-02-27T17:15:23;13.40;76.80
40538;DHT22;27925;41.874;12.526;2023-02-27T17:17:51;13.30;77.00
40538;DHT22;27925;41.874;12.526;2023-02-27T17:20:17;13.30;77.00
40538;DHT22;27925;41.874;12.526;2023-02-27T17:22:44;13.20;77.40
40538;DHT22;27925;41.874;12.526;2023-02-27T17:25:10;13.20;77.40
40538;DHT22;27925;41.874;12.526;2023-02-27T17:27:36;13.10;77.70
40538;DHT22;27925;41.874;12.526;2023-02-27T17:30:03;13.10;78.00
40538;DHT22;27925;41.874;12.526;2023-02-27T17:32:29;13.10;78.20
40538;DHT22;27925;41.874;12.526;2023-02-27T17:34:55;13.10;78.10
40538;DHT22;27925;41.874;12.526;2023-02-27T17:37:22;13.10;78.10
40538;DHT22;27925;41.874;12.526;2023-02-27T17:39:47;13.00;77.80
40538;DHT22;27925;41.874;12.526;2023-02-27T17:42:13;12.90;78.20
40538;DHT22;27925;41.874;12.526;2023-02-27T17:44:44;12.90;78.20
40538;DHT22;27925;41.874;12.526;2023-02-27T17:47:10;12.90;78.30
40538;DHT22;27925;41.874;12.526;2023-02-27T17:49:35;13.00;78.20
40538;DHT22;27925;41.874;12.526;2023-02-27T17:52:01;13.00;78.40
40538;DHT22;27925;41.874;12.526;2023-02-27T17:54:27;12.90;78.40
40538;DHT22;27925;41.874;12.526;2023-02-27T17:56:52;12.90;78.70
40538;DHT22;27925;41.874;12.526;2023-02-27T17:59:18;12.90;78.40
40538;DHT22;27925;41.874;12.526;2023-02-27T18:01:44;12.80;78.40
40538;DHT22;27925;41.874;12.526;2023-02-27T18:04:09;12.70;78.20
40538;DHT22;27925;41.874;12.526;2023-02-27T18:06:37;12.70;78.10
40538;DHT22;27925;41.874;12.526;2023-02-27T18:09:03;12.70;78.40
40538;DHT22;27925;41.874;12.526;2023-02-27T18:11:29;12.60;78.30